Time;durP1;ratioP1;P1;durP2;ratioP2;P2;SDS_P1;SDS_P2;PMS_P1;PMS_P2;Temp;Humidity;BMP_temperature;BMP_pressure;BME280_temperature;BME280_humidity;BME280_pressure;Samples;Min_cycle;Max_cycle;Signal;HPM_P1;HPM_P2
2023/01/07 00:01:58;;;;;;;93.23;49.00;;;;;;;;;;4413947;32;319168;-82
2023/01/07 00:04:24;;;;;;;105.53;52.53;;;;;;;;;;4402552;32;317696;-80
2023/01/07 00:06:51;;;;;;;124.30;63.37;;;;;;;;;;4418486;32;319258;-82
2023/01/07 00:09:18;;;;;;;129.47;68.73;;;;;;;;;;4397137;32;319364;-82
2023/01/07 00:11:48;;;;;;;151.63;77.40;;;;;;;;;;4386522;32;350894;-81
2023/01/07 00:14:15;;;;;;;133.93;73.43;;;;;;;;;;4398988;32;318731;-83
2023/01/07 00:16:42;;;;;;;179.90;91.67;;;;;;;;;;4389301;32;319337;-78
2023/01/07 00:19:13;;;;;;;195.63;95.60;;;;;;;;;;4399869;32;318894;-78
2023/01/07 00:21:41;;;;;;;176.07;92.87;;;;;;;;;;4396453;32;318893;-77
2023/01/07 00:24:10;;;;;;;186.10;93.13;;;;;;;;;;4408932;32;318921;-79
2023/01/07 00:26:37;;;;;;;168.63;89.17;;;;;;;;;;4398332;32;319293;-91
2023/01/07 00:29:05;;;;;;;161.90;79.63;;;;;;;;;;4410892;32;318484;-87
2023/01/07 00:31:34;;;;;;;158.70;82.53;;;;;;;;;;4390537;32;318716;-78
2023/01/07 00:34:08;;;;;;;154.90;82.60;;;;;;;;;;4397689;32;319328;-86
2023/01/07 00:36:38;;;;;;;171.37;83.93;;;;;;;;;;4393133;32;319157;-83
2023/01/07 00:39:07;;;;;;;151.33;76.87;;;;;;;;;;4412321;32;318740;-78
2023/01/07 00:41:34;;;;;;;124.40;69.10;;;;;;;;;;4402086;32;318552;-82
2023/01/07 00:44:02;;;;;;;135.07;71.73;;;;;;;;;;4413600;32;318647;-88
2023/01/07 00:46:29;;;;;;;139.07;70.40;;;;;;;;;;4403557;32;319334;-79
2023/01/07 00:48:56;;;;;;;119.83;62.83;;;;;;;;;;4412135;32;318628;-85
2023/01/07 00:51:27;;;;;;;134.00;69.83;;;;;;;;;;4412471;32;319304;-83
2023/01/07 00:53:55;;;;;;;125.30;66.17;;;;;;;;;;4399017;32;391530;-78
2023/01/07 00:56:22;;;;;;;133.23;68.50;;;;;;;;;;4413333;32;319496;-86
2023/01/07 00:58:49;;;;;;;143.07;70.43;;;;;;;;;;4399705;32;419611;-80
2023/01/07 01:01:16;;;;;;;137.53;69.87;;;;;;;;;;4412996;32;318610;-81
2023/01/07 01:03:43;;;;;;;125.40;67.30;;;;;;;;;;4394356;32;351499;-78
2023/01/07 01:06:15;;;;;;;119.63;67.90;;;;;;;;;;4412221;32;318675;-80
2023/01/07 01:08:42;;;;;;;132.10;71.37;;;;;;;;;;4403096;32;319281;-82
2023/01/07 01:11:12;;;;;;;145.23;72.27;;;;;;;;;;4412081;32;318694;-81
2023/01/07 01:13:39;;;;;;;137.90;69.37;;;;;;;;;;4403394;32;318964;-84
2023/01/07 01:16:11;;;;;;;136.83;73.70;;;;;;;;;;4411887;32;318717;-80
2023/01/07 01:18:38;;;;;;;128.47;74.80;;;;;;;;;;4400890;32;357889;-82
2023/01/07 01:21:06;;;;;;;147.10;74.53;;;;;;;;;;4411361;32;318680;-81
2023/01/07 01:23:33;;;;;;;127.93;73.63;;;;;;;;;;4401516;32;319298;-78
2023/01/07 01:26:05;;;;;;;131.70;72.90;;;;;;;;;;4412070;32;319388;-83
2023/01/07 01:28:34;;;;;;;130.57;72.83;;;;;;;;;;4400852;32;359873;-78
2023/01/07 01:31:01;;;;;;;130.37;68.50;;;;;;;;;;4413098;32;319148;-80
2023/01/07 01:33:27;;;;;;;116.00;63.10;;;;;;;;;;4402957;32;319507;-80
2023/01/07 01:35:54;;;;;;;114.97;61.07;;;;;;;;;;4410324;32;318415;-83
2023/01/07 01:38:21;;;;;;;119.63;61.87;;;;;;;;;;4396434;32;318729;-78
2023/01/07 01:40:48;;;;;;;106.43;59.73;;;;;;;;;;4390743;32;319124;-79
2023/01/07 01:43:30;;;;;;;104.70;57.40;;;;;;;;;;4412983;32;319312;-82
2023/01/07 01:46:00;;;;;;;97.83;57.77;;;;;;;;;;4399858;32;418566;-86
2023/01/07 01:48:27;;;;;;;96.10;50.97;;;;;;;;;;4402936;32;318274;-82
2023/01/07 01:50:54;;;;;;;91.83;51.97;;;;;;;;;;4412504;32;318713;-79
2023/01/07 01:53:24;;;;;;;84.47;48.40;;;;;;;;;;4411736;32;318388;-78
2023/01/07 01:55:57;;;;;;;93.87;52.00;;;;;;;;;;4399872;32;418034;-82
2023/01/07 01:58:29;;;;;;;81.57;46.97;;;;;;;;;;4412949;32;317530;-83
2023/01/07 02:00:58;;;;;;;89.03;50.70;;;;;;;;;;4399303;32;418865;-83
2023/01/07 02:03:29;;;;;;;90.20;50.17;;;;;;;;;;4400964;32;317465;-80
2023/01/07 02:05:55;;;;;;;82.50;48.23;;;;;;;;;;4420734;32;318050;-80
2023/01/07 02:08:22;;;;;;;82.97;47.27;;;;;;;;;;4415309;32;318175;-84
2023/01/07 02:11:00;;;;;;;87.97;46.03;;;;;;;;;;4401458;32;417267;-84
2023/01/07 02:13:38;;;;;;;83.10;46.00;;;;;;;;;;4405128;32;343476;-78
2023/01/07 02:16:16;;;;;;;73.47;39.83;;;;;;;;;;4414906;32;318411;-82
2023/01/07 02:18:57;;;;;;;69.27;38.53;;;;;;;;;;4405517;32;318445;-79
2023/01/07 02:21:37;;;;;;;82.07;38.43;;;;;;;;;;4415418;32;317630;-80
2023/01/07 02:24:38;;;;;;;71.57;39.30;;;;;;;;;;4415483;32;318323;-85
2023/01/07 02:27:24;;;;;;;65.47;38.03;;;;;;;;;;4402462;32;420005;-79
2023/01/07 02:30:31;;;;;;;58.07;33.60;;;;;;;;;;4402730;32;419818;-80
2023/01/07 02:33:30;;;;;;;50.17;31.07;;;;;;;;;;4401539;32;418409;-81
2023/01/07 02:36:28;;;;;;;69.80;36.53;;;;;;;;;;4401988;32;418646;-78
2023/01/07 02:39:12;;;;;;;58.87;32.57;;;;;;;;;;4389359;32;418592;-85
2023/01/07 02:41:49;;;;;;;82.23;40.13;;;;;;;;;;4403479;32;340829;-81
2023/01/07 02:44:25;;;;;;;75.47;42.43;;;;;;;;;;4415204;32;318200;-80
2023/01/07 02:46:57;;;;;;;82.30;44.30;;;;;;;;;;4402594;32;419823;-83
2023/01/07 02:49:25;;;;;;;91.63;47.50;;;;;;;;;;4415366;32;317541;-84
2023/01/07 02:51:52;;;;;;;89.20;47.40;;;;;;;;;;4400551;32;418499;-78
2023/01/07 02:54:22;;;;;;;85.20;49.20;;;;;;;;;;4415059;32;317467;-80
2023/01/07 02:57:12;;;;;;;88.47;52.60;;;;;;;;;;4402404;32;417784;-83
2023/01/07 03:00:06;;;;;;;107.37;56.37;;;;;;;;;;4405496;32;318318;-86
2023/01/07 03:02:46;;;;;;;113.67;60.30;;;;;;;;;;4397798;32;318919;-79
2023/01/07 03:05:33;;;;;;;117.77;60.80;;;;;;;;;;4412272;32;332832;-82
2023/01/07 03:08:26;;;;;;;109.83;61.37;;;;;;;;;;4400808;32;419538;-83
2023/01/07 03:10:58;;;;;;;124.13;64.53;;;;;;;;;;4402019;32;419893;-79
2023/01/07 03:13:30;;;;;;;120.93;64.83;;;;;;;;;;4403931;32;319787;-81
2023/01/07 03:16:03;;;;;;;123.87;64.90;;;;;;;;;;4413785;32;318660;-80
2023/01/07 03:18:32;;;;;;;122.30;63.20;;;;;;;;;;4404960;32;318718;-80
2023/01/07 03:21:03;;;;;;;122.07;64.53;;;;;;;;;;4414091;32;329335;-82
2023/01/07 03:23:31;;;;;;;120.33;66.07;;;;;;;;;;4400442;32;338760;-80
2023/01/07 03:26:03;;;;;;;119.13;67.60;;;;;;;;;;4425446;32;319324;-81
2023/01/07 03:28:36;;;;;;;121.87;68.77;;;;;;;;;;4403370;32;319910;-79
2023/01/07 03:31:04;;;;;;;126.57;66.23;;;;;;;;;;4414686;32;319326;-80
2023/01/07 03:33:39;;;;;;;145.67;71.33;;;;;;;;;;4403414;32;318796;-78
2023/01/07 03:36:12;;;;;;;133.10;71.90;;;;;;;;;;4413265;32;319470;-80
2023/01/07 03:38:44;;;;;;;131.17;72.30;;;;;;;;;;4404504;32;319151;-81
2023/01/07 03:42:38;;;;;;;129.97;74.57;;;;;;;;;;4407214;32;334923;-80
2023/01/07 03:43:58;;;;;;;144.63;73.40;;;;;;;;;;4387459;32;391644;-80
2023/01/07 03:46:25;;;;;;;136.10;70.60;;;;;;;;;;4389578;32;319384;-81
2023/01/07 03:48:51;;;;;;;136.60;71.53;;;;;;;;;;4399430;32;318652;-82
2023/01/07 03:51:20;;;;;;;136.37;70.17;;;;;;;;;;4397702;32;318643;-80
2023/01/07 03:53:48;;;;;;;135.27;65.73;;;;;;;;;;4389499;32;319470;-80
2023/01/07 03:56:14;;;;;;;125.77;66.47;;;;;;;;;;4399199;32;319652;-83
2023/01/07 03:58:44;;;;;;;113.77;63.00;;;;;;;;;;4388651;32;319216;-81
2023/01/07 04:01:10;;;;;;;114.40;62.03;;;;;;;;;;4400326;32;318735;-80
2023/01/07 04:03:37;;;;;;;109.83;62.67;;;;;;;;;;4389071;32;318545;-80
2023/01/07 04:06:04;;;;;;;117.50;62.37;;;;;;;;;;4402175;32;319525;-80
2023/01/07 04:08:32;;;;;;;112.93;62.57;;;;;;;;;;4397601;32;318956;-78
2023/01/07 04:10:59;;;;;;;121.20;62.90;;;;;;;;;;4416001;32;318821;-87
2023/01/07 04:13:25;;;;;;;104.57;57.90;;;;;;;;;;4421263;32;317484;-93
2023/01/07 04:15:52;;;;;;;108.70;59.10;;;;;;;;;;4425138;32;318994;-86
2023/01/07 04:18:19;;;;;;;112.00;58.87;;;;;;;;;;4418824;32;319379;-78
2023/01/07 04:20:47;;;;;;;98.50;55.40;;;;;;;;;;4410224;32;318634;-80
2023/01/07 04:23:14;;;;;;;101.07;55.70;;;;;;;;;;4415943;32;318441;-78
2023/01/07 04:25:46;;;;;;;100.30;52.67;;;;;;;;;;4407883;32;319308;-79
2023/01/07 04:28:12;;;;;;;94.50;52.83;;;;;;;;;;4421209;32;319173;-80
2023/01/07 04:30:39;;;;;;;104.27;51.20;;;;;;;;;;4409037;32;318225;-80
2023/01/07 04:33:07;;;;;;;82.13;46.90;;;;;;;;;;4418780;32;318380;-79
2023/01/07 04:35:34;;;;;;;87.07;44.53;;;;;;;;;;4409214;32;318262;-77
2023/01/07 04:38:00;;;;;;;84.33;45.23;;;;;;;;;;4403972;32;318490;-78
2023/01/07 04:40:27;;;;;;;79.33;44.83;;;;;;;;;;4391203;32;318267;-80
2023/01/07 04:42:56;;;;;;;81.87;42.07;;;;;;;;;;4403294;32;317723;-79
2023/01/07 04:45:24;;;;;;;85.07;46.47;;;;;;;;;;4397178;32;317357;-85
2023/01/07 04:47:55;;;;;;;91.27;50.00;;;;;;;;;;4389781;32;417599;-79
2023/01/07 04:50:21;;;;;;;100.87;53.90;;;;;;;;;;4401382;32;317693;-79
2023/01/07 04:52:48;;;;;;;83.13;45.70;;;;;;;;;;4396685;32;336900;-78
2023/01/07 04:55:15;;;;;;;87.83;46.87;;;;;;;;;;4412883;32;318042;-76
2023/01/07 04:57:42;;;;;;;88.77;48.43;;;;;;;;;;4405110;32;317861;-77
2023/01/07 05:00:11;;;;;;;92.07;45.03;;;;;;;;;;4414832;32;317306;-78
2023/01/07 05:02:38;;;;;;;78.10;42.73;;;;;;;;;;4395285;32;317209;-77
2023/01/07 05:05:05;;;;;;;84.80;46.67;;;;;;;;;;4420471;32;317062;-78
2023/01/07 05:07:32;;;;;;;82.53;43.40;;;;;;;;;;4401428;32;318069;-77
2023/01/07 05:09:59;;;;;;;71.50;40.90;;;;;;;;;;4419997;32;318079;-78
2023/01/07 05:12:25;;;;;;;70.77;39.77;;;;;;;;;;4408496;32;318011;-78
2023/01/07 05:14:52;;;;;;;76.40;44.30;;;;;;;;;;4418622;32;318055;-82
2023/01/07 05:17:20;;;;;;;84.30;50.00;;;;;;;;;;4421506;32;317706;-80
2023/01/07 05:19:47;;;;;;;129.20;73.67;;;;;;;;;;4409906;32;317655;-82
2023/01/07 05:22:15;;;;;;;120.60;74.07;;;;;;;;;;4415360;32;317921;-77
2023/01/07 05:24:42;;;;;;;104.57;61.27;;;;;;;;;;4406605;32;319268;-78
2023/01/07 05:27:09;;;;;;;119.00;59.27;;;;;;;;;;4414626;32;318567;-81
2023/01/07 05:29:35;;;;;;;110.17;61.27;;;;;;;;;;4402273;32;318826;-81
2023/01/07 05:32:02;;;;;;;111.00;57.37;;;;;;;;;;4410530;32;358649;-81
2023/01/07 05:34:30;;;;;;;126.37;64.43;;;;;;;;;;4401521;32;319392;-78
2023/01/07 05:36:57;;;;;;;134.93;66.83;;;;;;;;;;4403516;32;318631;-82
2023/01/07 05:39:24;;;;;;;153.23;77.47;;;;;;;;;;4399150;32;318875;-83
2023/01/07 05:41:51;;;;;;;209.87;98.10;;;;;;;;;;4395373;32;418847;-82
2023/01/07 05:44:18;;;;;;;233.57;111.23;;;;;;;;;;4415295;32;319416;-79
2023/01/07 05:46:45;;;;;;;150.50;80.47;;;;;;;;;;4405069;32;320491;-81
2023/01/07 05:49:12;;;;;;;146.83;76.10;;;;;;;;;;4415913;32;319327;-84
2023/01/07 05:51:40;;;;;;;153.30;78.50;;;;;;;;;;4406093;32;319045;-83
2023/01/07 05:54:07;;;;;;;140.47;68.63;;;;;;;;;;4415920;32;318544;-81
2023/01/07 05:56:34;;;;;;;140.27;67.80;;;;;;;;;;4405765;32;319567;-79
2023/01/07 05:59:01;;;;;;;120.07;64.10;;;;;;;;;;4415892;32;318918;-80
2023/01/07 06:01:28;;;;;;;122.30;63.17;;;;;;;;;;4403564;32;318796;-87
2023/01/07 06:03:55;;;;;;;106.97;60.10;;;;;;;;;;4415074;32;319312;-87
2023/01/07 06:06:22;;;;;;;99.40;58.43;;;;;;;;;;4414181;32;318979;-82
2023/01/07 06:08:50;;;;;;;114.27;63.10;;;;;;;;;;4405590;32;317724;-80
2023/01/07 06:11:17;;;;;;;115.70;64.37;;;;;;;;;;4415585;32;319183;-80
2023/01/07 06:13:44;;;;;;;117.93;63.50;;;;;;;;;;4404021;32;318328;-81
2023/01/07 06:16:13;;;;;;;120.10;62.57;;;;;;;;;;4414470;32;319045;-81
2023/01/07 06:18:39;;;;;;;123.23;67.83;;;;;;;;;;4404156;32;319663;-83
2023/01/07 06:21:06;;;;;;;114.87;67.37;;;;;;;;;;4414058;32;317659;-81
2023/01/07 06:23:33;;;;;;;113.53;61.27;;;;;;;;;;4405112;32;319058;-79
2023/01/07 06:26:02;;;;;;;96.43;56.03;;;;;;;;;;4415475;32;319214;-80
2023/01/07 06:28:29;;;;;;;98.10;58.13;;;;;;;;;;4404075;32;318168;-81
2023/01/07 06:30:56;;;;;;;129.70;75.13;;;;;;;;;;4415689;32;318667;-78
2023/01/07 06:33:23;;;;;;;119.77;71.10;;;;;;;;;;4415303;32;319346;-83
2023/01/07 06:35:51;;;;;;;115.53;71.23;;;;;;;;;;4402060;32;342561;-82
2023/01/07 06:38:18;;;;;;;172.23;87.37;;;;;;;;;;4399411;32;334908;-81
2023/01/07 06:40:45;;;;;;;217.50;106.13;;;;;;;;;;4392817;32;318549;-84
2023/01/07 06:43:13;;;;;;;168.20;90.87;;;;;;;;;;4415014;32;319935;-85
2023/01/07 06:45:40;;;;;;;168.83;91.33;;;;;;;;;;4405362;32;318829;-78
2023/01/07 06:48:06;;;;;;;176.83;96.20;;;;;;;;;;4414292;32;319332;-82
2023/01/07 06:50:33;;;;;;;206.53;106.83;;;;;;;;;;4403709;32;319393;-81
2023/01/07 06:53:00;;;;;;;190.30;99.73;;;;;;;;;;4413507;32;320071;-85
2023/01/07 06:55:27;;;;;;;195.73;109.17;;;;;;;;;;4405293;32;319737;-86
2023/01/07 06:57:53;;;;;;;167.27;94.03;;;;;;;;;;4413381;32;319624;-81
2023/01/07 07:00:22;;;;;;;162.73;96.07;;;;;;;;;;4414725;32;323127;-83
2023/01/07 07:02:49;;;;;;;177.80;106.13;;;;;;;;;;4402659;32;318750;-81
2023/01/07 07:05:17;;;;;;;165.97;99.13;;;;;;;;;;4412479;32;319727;-83
2023/01/07 07:07:44;;;;;;;160.83;95.47;;;;;;;;;;4403722;32;319338;-80
2023/01/07 07:10:11;;;;;;;192.57;104.33;;;;;;;;;;4413861;32;319630;-79
2023/01/07 07:12:39;;;;;;;214.80;111.27;;;;;;;;;;4404638;32;320416;-80
2023/01/07 07:15:07;;;;;;;184.80;103.43;;;;;;;;;;4413593;32;320781;-78
2023/01/07 07:17:36;;;;;;;198.43;108.97;;;;;;;;;;4403420;32;319790;-82
2023/01/07 07:20:03;;;;;;;184.57;101.33;;;;;;;;;;4414217;32;320402;-80
2023/01/07 07:22:30;;;;;;;169.03;100.60;;;;;;;;;;4404464;32;320829;-82
2023/01/07 07:24:56;;;;;;;187.37;111.13;;;;;;;;;;4414734;32;320419;-79
2023/01/07 07:27:23;;;;;;;215.30;122.07;;;;;;;;;;4400079;32;320412;-81
2023/01/07 07:29:50;;;;;;;219.60;129.00;;;;;;;;;;4386041;32;420974;-83
2023/01/07 07:32:17;;;;;;;189.90;110.67;;;;;;;;;;4399349;32;320419;-79
2023/01/07 07:34:45;;;;;;;219.37;113.17;;;;;;;;;;4386603;32;320562;-80
2023/01/07 07:37:12;;;;;;;185.13;107.20;;;;;;;;;;4399070;32;320391;-81
2023/01/07 07:39:39;;;;;;;184.13;108.17;;;;;;;;;;4387845;32;320919;-79
2023/01/07 07:42:06;;;;;;;189.80;105.47;;;;;;;;;;4410070;32;320523;-82
2023/01/07 07:44:32;;;;;;;185.67;111.97;;;;;;;;;;4403267;32;320543;-78
2023/01/07 07:47:00;;;;;;;192.50;113.70;;;;;;;;;;4414404;32;359165;-78
2023/01/07 07:49:27;;;;;;;543.47;314.33;;;;;;;;;;4405825;32;320666;-79
2023/01/07 07:51:57;;;;;;;184.47;113.73;;;;;;;;;;4422318;32;319916;-77
2023/01/07 07:54:24;;;;;;;170.40;98.37;;;;;;;;;;4420748;32;319989;-79
2023/01/07 07:56:50;;;;;;;187.27;105.10;;;;;;;;;;4409835;32;418343;-83
2023/01/07 07:59:17;;;;;;;174.27;98.77;;;;;;;;;;4426817;32;319571;-84
2023/01/07 08:01:44;;;;;;;183.33;115.87;;;;;;;;;;4404142;32;319254;-86
2023/01/07 08:04:11;;;;;;;194.50;114.57;;;;;;;;;;4413832;32;320310;-84
2023/01/07 08:06:38;;;;;;;201.97;115.20;;;;;;;;;;4403805;32;320448;-80
2023/01/07 08:09:06;;;;;;;182.70;105.13;;;;;;;;;;4413580;32;319880;-80
2023/01/07 08:11:33;;;;;;;152.43;93.53;;;;;;;;;;4401888;32;344268;-83
2023/01/07 08:14:00;;;;;;;144.50;90.37;;;;;;;;;;4413669;32;318845;-84
2023/01/07 08:16:27;;;;;;;145.00;86.80;;;;;;;;;;4403526;32;319415;-82
2023/01/07 08:18:54;;;;;;;136.77;86.73;;;;;;;;;;4412373;32;320241;-82
2023/01/07 08:21:20;;;;;;;126.60;78.00;;;;;;;;;;4411525;32;318731;-80
2023/01/07 08:23:47;;;;;;;116.73;69.23;;;;;;;;;;4402626;32;319355;-81
2023/01/07 08:26:15;;;;;;;105.97;61.07;;;;;;;;;;4412703;32;318854;-80
2023/01/07 08:28:42;;;;;;;92.20;50.67;;;;;;;;;;4403855;32;318937;-84
2023/01/07 08:31:09;;;;;;;99.23;53.73;;;;;;;;;;4412820;32;318930;-80
2023/01/07 08:33:38;;;;;;;88.73;50.50;;;;;;;;;;4403707;32;317621;-81
2023/01/07 08:36:06;;;;;;;77.47;43.23;;;;;;;;;;4411692;32;317797;-82
2023/01/07 08:38:33;;;;;;;68.03;39.13;;;;;;;;;;4388362;32;325342;-82
2023/01/07 08:41:00;;;;;;;76.90;44.40;;;;;;;;;;4402280;32;317065;-80
2023/01/07 08:43:29;;;;;;;48.40;31.13;;;;;;;;;;4402546;32;318542;-81
2023/01/07 08:45:56;;;;;;;65.23;36.03;;;;;;;;;;4411945;32;317680;-81
2023/01/07 08:48:23;;;;;;;65.13;36.60;;;;;;;;;;4413371;32;317846;-85
2023/01/07 08:50:52;;;;;;;71.30;36.23;;;;;;;;;;4400354;32;417022;-83
2023/01/07 08:53:19;;;;;;;60.13;33.20;;;;;;;;;;4400067;32;318651;-84
2023/01/07 08:55:45;;;;;;;60.67;34.93;;;;;;;;;;4386147;32;337895;-79
2023/01/07 08:58:12;;;;;;;58.73;32.90;;;;;;;;;;4398850;32;317589;-85
2023/01/07 09:00:43;;;;;;;53.67;30.50;;;;;;;;;;4386644;32;318598;-88
2023/01/07 09:03:09;;;;;;;56.67;32.20;;;;;;;;;;4395160;32;318541;-82
2023/01/07 09:05:36;;;;;;;55.80;30.73;;;;;;;;;;4388125;32;318155;-81
2023/01/07 09:08:03;;;;;;;49.77;31.70;;;;;;;;;;4410586;32;317768;-81
2023/01/07 09:10:30;;;;;;;56.60;32.67;;;;;;;;;;4403215;32;318388;-79
2023/01/07 09:12:57;;;;;;;67.50;38.03;;;;;;;;;;4412138;32;317734;-81
2023/01/07 09:15:24;;;;;;;62.77;36.70;;;;;;;;;;4413113;32;317861;-84
2023/01/07 09:17:52;;;;;;;78.37;41.67;;;;;;;;;;4396982;32;417037;-81
2023/01/07 09:20:19;;;;;;;70.90;38.23;;;;;;;;;;4401137;32;317515;-78
2023/01/07 09:22:46;;;;;;;60.07;32.13;;;;;;;;;;4387715;32;317480;-80
2023/01/07 09:25:13;;;;;;;64.13;33.93;;;;;;;;;;4396939;32;318088;-80
2023/01/07 09:27:42;;;;;;;175.20;71.37;;;;;;;;;;4387610;32;318787;-84
2023/01/07 09:30:09;;;;;;;70.43;38.03;;;;;;;;;;4395533;32;348997;-81
2023/01/07 09:32:36;;;;;;;57.43;34.37;;;;;;;;;;4387706;32;317801;-84
2023/01/07 09:35:06;;;;;;;196.80;71.27;;;;;;;;;;4399888;32;317760;-84
2023/01/07 09:37:33;;;;;;;77.37;42.63;;;;;;;;;;4387949;32;319315;-80
2023/01/07 09:40:00;;;;;;;67.10;39.00;;;;;;;;;;4395665;32;318211;-83
2023/01/07 09:42:37;;;;;;;48.57;30.70;;;;;;;;;;4399670;32;317500;-80
2023/01/07 09:45:12;;;;;;;59.83;36.10;;;;;;;;;;4412734;32;318516;-84
2023/01/07 09:47:43;;;;;;;55.63;34.07;;;;;;;;;;4402446;32;318523;-81
2023/01/07 09:50:19;;;;;;;55.27;32.93;;;;;;;;;;4397810;32;317597;-82
2023/01/07 09:52:50;;;;;;;62.10;33.70;;;;;;;;;;4387811;32;317791;-78
2023/01/07 09:55:20;;;;;;;61.87;32.23;;;;;;;;;;4397779;32;318395;-87
2023/01/07 09:57:48;;;;;;;76.23;40.27;;;;;;;;;;4387626;32;317634;-81
2023/01/07 10:00:18;;;;;;;51.67;32.73;;;;;;;;;;4397626;32;318304;-78
2023/01/07 10:02:57;;;;;;;52.43;31.13;;;;;;;;;;4387429;32;318702;-79
2023/01/07 10:05:34;;;;;;;50.80;30.53;;;;;;;;;;4398003;32;317388;-83
2023/01/07 10:08:09;;;;;;;47.43;29.30;;;;;;;;;;4397191;32;417247;-82
2023/01/07 10:10:44;;;;;;;49.40;29.53;;;;;;;;;;4399449;32;357458;-80
2023/01/07 10:13:26;;;;;;;56.57;33.60;;;;;;;;;;4411766;32;318189;-85
2023/01/07 10:16:01;;;;;;;53.20;32.70;;;;;;;;;;4384548;32;421897;-81
2023/01/07 10:18:39;;;;;;;93.40;53.87;;;;;;;;;;4386120;32;317477;-92
2023/01/07 10:21:14;;;;;;;52.73;30.47;;;;;;;;;;4397498;32;317640;-80
2023/01/07 10:23:43;;;;;;;56.43;31.67;;;;;;;;;;4381781;32;318335;-80
2023/01/07 10:26:21;;;;;;;45.27;29.53;;;;;;;;;;4409627;32;318041;-84
2023/01/07 10:28:54;;;;;;;45.23;28.87;;;;;;;;;;4389366;32;318350;-81
2023/01/07 10:31:24;;;;;;;49.20;28.97;;;;;;;;;;4399281;32;318384;-80
2023/01/07 10:33:51;;;;;;;44.17;27.43;;;;;;;;;;4387483;32;418348;-80
2023/01/07 10:36:23;;;;;;;47.37;28.20;;;;;;;;;;4400622;32;318254;-78
2023/01/07 10:38:58;;;;;;;40.93;24.50;;;;;;;;;;4386628;32;411598;-78
2023/01/07 10:41:36;;;;;;;41.73;25.00;;;;;;;;;;4397141;32;317776;-81
2023/01/07 10:44:38;;;;;;;39.63;25.70;;;;;;;;;;4415171;32;317563;-77
2023/01/07 10:47:16;;;;;;;45.03;26.03;;;;;;;;;;4401175;32;418523;-81
2023/01/07 10:49:57;;;;;;;36.83;25.07;;;;;;;;;;4403489;32;354929;-82
2023/01/07 10:52:33;;;;;;;38.30;23.33;;;;;;;;;;4414399;32;318288;-79
2023/01/07 10:55:26;;;;;;;34.93;22.23;;;;;;;;;;4402517;32;420820;-81
2023/01/07 10:57:52;;;;;;;29.33;17.87;;;;;;;;;;4393326;32;419952;-78
2023/01/07 11:00:20;;;;;;;31.93;20.37;;;;;;;;;;4417490;32;318121;-86
2023/01/07 11:02:51;;;;;;;35.70;21.47;;;;;;;;;;4405543;32;318955;-80
2023/01/07 11:05:19;;;;;;;33.33;19.70;;;;;;;;;;4418029;32;319065;-79
2023/01/07 11:07:51;;;;;;;26.97;17.43;;;;;;;;;;4400112;32;319905;-83
2023/01/07 11:10:22;;;;;;;23.10;15.10;;;;;;;;;;4404887;32;318928;-79
2023/01/07 11:12:51;;;;;;;21.17;14.67;;;;;;;;;;4408049;32;335268;-78
2023/01/07 11:15:22;;;;;;;25.70;16.33;;;;;;;;;;4419018;32;319584;-79
2023/01/07 11:17:52;;;;;;;37.37;18.20;;;;;;;;;;4406728;32;319892;-79
2023/01/07 11:20:41;;;;;;;26.33;15.80;;;;;;;;;;4419029;32;318786;-80
2023/01/07 11:23:26;;;;;;;40.53;17.13;;;;;;;;;;4405089;32;419559;-80
2023/01/07 11:25:54;;;;;;;22.33;14.70;;;;;;;;;;4402201;32;420715;-79
2023/01/07 11:28:27;;;;;;;20.93;13.83;;;;;;;;;;4416074;32;319153;-78
2023/01/07 11:30:58;;;;;;;22.40;14.73;;;;;;;;;;4404213;32;418826;-79
2023/01/07 11:33:27;;;;;;;31.67;15.73;;;;;;;;;;4416708;32;352800;-77
2023/01/07 11:35:56;;;;;;;20.40;13.13;;;;;;;;;;4407840;32;418203;-78
2023/01/07 11:38:29;;;;;;;24.07;13.90;;;;;;;;;;4423107;32;318398;-79
2023/01/07 11:40:56;;;;;;;31.57;16.97;;;;;;;;;;4409182;32;418428;-79
2023/01/07 11:43:25;;;;;;;23.33;15.00;;;;;;;;;;4426080;32;318388;-91
2023/01/07 11:45:54;;;;;;;25.23;14.60;;;;;;;;;;4403473;32;420020;-78
2023/01/07 11:48:28;;;;;;;21.17;13.70;;;;;;;;;;4413881;32;319121;-78
2023/01/07 11:50:59;;;;;;;25.47;15.53;;;;;;;;;;4400884;32;418535;-81
2023/01/07 11:53:35;;;;;;;29.63;16.93;;;;;;;;;;4404684;32;319424;-79
2023/01/07 11:56:05;;;;;;;24.67;15.80;;;;;;;;;;4414117;32;319342;-82
2023/01/07 11:58:34;;;;;;;20.97;14.93;;;;;;;;;;4404676;32;319784;-88
2023/01/07 12:01:19;;;;;;;30.43;17.97;;;;;;;;;;4413872;32;330746;-76
2023/01/07 12:04:09;;;;;;;35.80;19.30;;;;;;;;;;4402092;32;319447;-77
2023/01/07 12:06:39;;;;;;;27.10;17.67;;;;;;;;;;4404072;32;319379;-84
2023/01/07 12:09:18;;;;;;;30.70;19.43;;;;;;;;;;4413930;32;319169;-79
2023/01/07 12:11:46;;;;;;;35.77;21.90;;;;;;;;;;4404168;32;319284;-82
2023/01/07 12:14:23;;;;;;;45.13;23.63;;;;;;;;;;4414040;32;319783;-80
2023/01/07 12:16:51;;;;;;;38.63;23.63;;;;;;;;;;4400366;32;418191;-82
2023/01/07 12:19:31;;;;;;;35.43;20.50;;;;;;;;;;4412833;32;318929;-80
2023/01/07 12:22:10;;;;;;;29.13;17.77;;;;;;;;;;4399941;32;421422;-82
2023/01/07 12:25:05;;;;;;;34.90;19.80;;;;;;;;;;4395892;32;318804;-78
2023/01/07 12:27:42;;;;;;;35.13;20.23;;;;;;;;;;4401604;32;347061;-81
2023/01/07 12:30:43;;;;;;;35.63;21.83;;;;;;;;;;4412572;32;318809;-82
2023/01/07 12:33:23;;;;;;;32.60;20.73;;;;;;;;;;4400040;32;391509;-81
2023/01/07 12:35:55;;;;;;;34.93;19.90;;;;;;;;;;4399217;32;418638;-77
2023/01/07 12:38:27;;;;;;;42.97;20.87;;;;;;;;;;4397695;32;336899;-95
2023/01/07 12:41:00;;;;;;;31.43;18.43;;;;;;;;;;4389072;32;419425;-83
2023/01/07 12:43:32;;;;;;;35.40;21.07;;;;;;;;;;4403358;32;319177;-78
2023/01/07 12:46:02;;;;;;;37.53;19.43;;;;;;;;;;4412049;32;318746;-79
2023/01/07 12:48:37;;;;;;;36.93;21.23;;;;;;;;;;4399950;32;359814;-78
2023/01/07 12:51:11;;;;;;;38.10;20.03;;;;;;;;;;4413898;32;319467;-80
2023/01/07 12:53:42;;;;;;;34.37;20.10;;;;;;;;;;4403786;32;319530;-80
2023/01/07 12:56:20;;;;;;;39.13;19.17;;;;;;;;;;4413423;32;319664;-82
2023/01/07 12:58:51;;;;;;;31.43;19.63;;;;;;;;;;4402207;32;319101;-81
2023/01/07 13:01:29;;;;;;;27.83;18.50;;;;;;;;;;4412165;32;319605;-80
2023/01/07 13:04:07;;;;;;;33.13;18.10;;;;;;;;;;4400723;32;418612;-81
2023/01/07 13:06:43;;;;;;;25.60;17.27;;;;;;;;;;4402943;32;319250;-82
2023/01/07 13:09:21;;;;;;;23.17;16.00;;;;;;;;;;4412038;32;318627;-80
2023/01/07 13:14:41;;;;;;;54.07;25.30;;;;;;;;;;4401958;32;319421;-80
2023/01/07 13:17:15;;;;;;;37.53;20.27;;;;;;;;;;4411182;32;335524;-79
2023/01/07 13:19:43;;;;;;;26.60;15.63;;;;;;;;;;4403545;32;318655;-81
2023/01/07 13:22:17;;;;;;;52.57;37.03;;;;;;;;;;4415058;32;318560;-83
2023/01/07 13:24:57;;;;;;;22.77;15.67;;;;;;;;;;4404127;32;318777;-80
2023/01/07 13:27:34;;;;;;;20.07;13.20;;;;;;;;;;4413030;32;319473;-83
2023/01/07 13:30:13;;;;;;;25.07;14.70;;;;;;;;;;4398820;32;419396;-83
2023/01/07 13:32:56;;;;;;;27.13;14.20;;;;;;;;;;4401345;32;319166;-80
2023/01/07 13:35:41;;;;;;;24.17;14.53;;;;;;;;;;4397989;32;318614;-84
2023/01/07 13:38:22;;;;;;;33.13;16.57;;;;;;;;;;4384705;32;420869;-81
2023/01/07 13:41:14;;;;;;;27.53;15.13;;;;;;;;;;4388307;32;318575;-80
2023/01/07 13:43:58;;;;;;;28.43;16.57;;;;;;;;;;4389074;32;318626;-82
2023/01/07 13:46:31;;;;;;;29.10;18.17;;;;;;;;;;4391671;32;318919;-80
2023/01/07 13:48:59;;;;;;;43.83;24.30;;;;;;;;;;4396619;32;318808;-83
2023/01/07 13:51:28;;;;;;;29.67;18.30;;;;;;;;;;4386740;32;319483;-78
2023/01/07 13:53:55;;;;;;;29.47;19.33;;;;;;;;;;4396276;32;318747;-85
2023/01/07 13:56:43;;;;;;;52.20;29.87;;;;;;;;;;4395048;32;318520;-83
2023/01/07 13:59:47;;;;;;;68.40;42.07;;;;;;;;;;4383972;32;419215;-84
2023/01/07 14:02:17;;;;;;;69.00;43.60;;;;;;;;;;4402449;32;419678;-80
2023/01/07 14:04:50;;;;;;;64.30;41.13;;;;;;;;;;4404802;32;319182;-80
2023/01/07 14:07:18;;;;;;;73.13;45.17;;;;;;;;;;4415660;32;319599;-80
2023/01/07 14:09:46;;;;;;;97.17;58.20;;;;;;;;;;4405392;32;318997;-78
2023/01/07 14:12:37;;;;;;;93.13;58.20;;;;;;;;;;4415789;32;319421;-81
2023/01/07 14:15:46;;;;;;;102.93;60.43;;;;;;;;;;4402663;32;419227;-83
2023/01/07 14:18:58;;;;;;;89.10;55.87;;;;;;;;;;4399151;32;421089;-81
2023/01/07 14:21:57;;;;;;;92.80;56.27;;;;;;;;;;4406556;32;418985;-81
2023/01/07 14:24:42;;;;;;;84.43;52.80;;;;;;;;;;4414554;32;318932;-86
2023/01/07 14:27:33;;;;;;;86.77;50.50;;;;;;;;;;4402476;32;419267;-84